sensor_id;sensor_type;location;lat;lon;timestamp;temperature;humidity
25839;DHT22;13669;50.186;27.062;2022-08-21T00:00:27;20.30;1.00
25839;DHT22;13669;50.186;27.062;2022-08-21T00:02:59;20.30;1.00
25839;DHT22;13669;50.186;27.062;2022-08-21T00:05:30;20.30;1.00
25839;DHT22;13669;50.186;27.062;2022-08-21T00:07:58;20.30;1.00
25839;DHT22;13669;50.186;27.062;2022-08-21T00:10:25;20.30;1.00
25839;DHT22;13669;50.186;27.062;2022-08-21T00:12:53;20.30;1.00
25839;DHT22;13669;50.186;27.062;2022-08-21T00:15:26;20.20;1.00
25839;DHT22;13669;50.186;27.062;2022-08-21T00:17:55;20.20;1.00
25839;DHT22;13669;50.186;27.062;2022-08-21T00:20:24;20.10;1.00
25839;DHT22;13669;50.186;27.062;2022-08-21T00:22:52;20.20;1.00
25839;DHT22;13669;50.186;27.062;2022-08-21T00:25:22;20.20;1.00
25839;DHT22;13669;50.186;27.062;2022-08-21T00:27:52;20.10;1.00
25839;DHT22;13669;50.186;27.062;2022-08-21T00:30:21;20.20;1.00
25839;DHT22;13669;50.186;27.062;2022-08-21T00:32:51;20.20;1.00
25839;DHT22;13669;50.186;27.062;2022-08-21T00:35:21;20.20;1.00
25839;DHT22;13669;50.186;27.062;2022-08-21T00:37:48;20.10;5.60
25839;DHT22;13669;50.186;27.062;2022-08-21T00:40:19;20.10;7.90
25839;DHT22;13669;50.186;27.062;2022-08-21T00:42:47;20.10;8.40
25839;DHT22;13669;50.186;27.062;2022-08-21T00:45:21;20.10;13.40
25839;DHT22;13669;50.186;27.062;2022-08-21T00:47:51;20.10;13.20
25839;DHT22;13669;50.186;27.062;2022-08-21T00:50:19;20.10;18.60
25839;DHT22;13669;50.186;27.062;2022-08-21T00:52:50;20.10;23.20
25839;DHT22;13669;50.186;27.062;2022-08-21T00:55:20;20.10;28.50
25839;DHT22;13669;50.186;27.062;2022-08-21T00:57:55;20.10;27.50
25839;DHT22;13669;50.186;27.062;2022-08-21T01:00:32;20.10;26.90
25839;DHT22;13669;50.186;27.062;2022-08-21T01:03:04;20.10;25.10
25839;DHT22;13669;50.186;27.062;2022-08-21T01:05:36;20.00;38.10
25839;DHT22;13669;50.186;27.062;2022-08-21T01:08:04;20.10;30.00
25839;DHT22;13669;50.186;27.062;2022-08-21T01:10:34;20.00;34.50
25839;DHT22;13669;50.186;27.062;2022-08-21T01:13:06;20.00;31.20
25839;DHT22;13669;50.186;27.062;2022-08-21T01:15:37;20.00;39.20
25839;DHT22;13669;50.186;27.062;2022-08-21T01:18:08;20.00;48.50
25839;DHT22;13669;50.186;27.062;2022-08-21T01:20:38;20.00;55.80
25839;DHT22;13669;50.186;27.062;2022-08-21T01:23:06;20.00;49.10
25839;DHT22;13669;50.186;27.062;2022-08-21T01:25:34;19.90;61.30
25839;DHT22;13669;50.186;27.062;2022-08-21T01:28:09;19.90;59.00
25839;DHT22;13669;50.186;27.062;2022-08-21T01:30:37;19.90;76.60
25839;DHT22;13669;50.186;27.062;2022-08-21T01:33:05;19.90;71.20
25839;DHT22;13669;50.186;27.062;2022-08-21T01:35:33;19.90;67.30
25839;DHT22;13669;50.186;27.062;2022-08-21T01:38:01;19.90;68.60
25839;DHT22;13669;50.186;27.062;2022-08-21T01:40:28;19.80;69.20
25839;DHT22;13669;50.186;27.062;2022-08-21T01:42:56;19.80;87.10
25839;DHT22;13669;50.186;27.062;2022-08-21T01:45:24;19.80;89.50
25839;DHT22;13669;50.186;27.062;2022-08-21T01:47:51;19.80;93.90
25839;DHT22;13669;50.186;27.062;2022-08-21T01:50:20;19.70;86.50
25839;DHT22;13669;50.186;27.062;2022-08-21T01:52:49;19.70;95.50
25839;DHT22;13669;50.186;27.062;2022-08-21T01:55:17;19.60;98.10
25839;DHT22;13669;50.186;27.062;2022-08-21T01:57:45;19.70;94.80
25839;DHT22;13669;50.186;27.062;2022-08-21T02:00:15;19.70;99.90
25839;DHT22;13669;50.186;27.062;2022-08-21T02:02:43;19.70;87.00
25839;DHT22;13669;50.186;27.062;2022-08-21T02:05:12;19.70;76.40
25839;DHT22;13669;50.186;27.062;2022-08-21T02:07:48;19.60;87.10
25839;DHT22;13669;50.186;27.062;2022-08-21T02:10:19;19.60;96.90
25839;DHT22;13669;50.186;27.062;2022-08-21T02:12:47;19.50;99.90
25839;DHT22;13669;50.186;27.062;2022-08-21T02:15:15;19.50;99.90
25839;DHT22;13669;50.186;27.062;2022-08-21T02:17:48;19.50;99.90
25839;DHT22;13669;50.186;27.062;2022-08-21T02:20:20;19.50;99.90
25839;DHT22;13669;50.186;27.062;2022-08-21T02:22:48;19.60;98.10
25839;DHT22;13669;50.186;27.062;2022-08-21T02:25:17;19.50;95.50
25839;DHT22;13669;50.186;27.062;2022-08-21T02:27:47;19.60;96.70
25839;DHT22;13669;50.186;27.062;2022-08-21T02:30:24;19.60;94.40
25839;DHT22;13669;50.186;27.062;2022-08-21T02:32:52;19.60;94.60
25839;DHT22;13669;50.186;27.062;2022-08-21T02:35:20;19.60;91.30
25839;DHT22;13669;50.186;27.062;2022-08-21T02:37:51;19.60;93.00
25839;DHT22;13669;50.186;27.062;2022-08-21T02:40:21;19.50;94.30
25839;DHT22;13669;50.186;27.062;2022-08-21T02:42:49;19.50;98.70
25839;DHT22;13669;50.186;27.062;2022-08-21T02:45:17;19.40;99.90
25839;DHT22;13669;50.186;27.062;2022-08-21T02:47:51;19.40;99.90
25839;DHT22;13669;50.186;27.062;2022-08-21T02:50:22;19.30;99.90
25839;DHT22;13669;50.186;27.062;2022-08-21T02:52:52;19.30;99.90
25839;DHT22;13669;50.186;27.062;2022-08-21T02:55:23;19.20;99.90
25839;DHT22;13669;50.186;27.062;2022-08-21T02:57:54;19.20;99.90
25839;DHT22;13669;50.186;27.062;2022-08-21T03:00:24;19.20;99.90
25839;DHT22;13669;50.186;27.062;2022-08-21T03:02:52;19.20;99.90
25839;DHT22;13669;50.186;27.062;2022-08-21T03:05:20;19.30;99.90
25839;DHT22;13669;50.186;27.062;2022-08-21T03:07:48;19.30;99.90
25839;DHT22;13669;50.186;27.062;2022-08-21T03:10:16;19.40;99.90
25839;DHT22;13669;50.186;27.062;2022-08-21T03:12:44;19.30;99.90
25839;DHT22;13669;50.186;27.062;2022-08-21T03:15:14;19.40;99.90
25839;DHT22;13669;50.186;27.062;2022-08-21T03:17:41;19.30;99.90
25839;DHT22;13669;50.186;27.062;2022-08-21T03:20:10;19.40;99.90
25839;DHT22;13669;50.186;27.062;2022-08-21T03:22:37;19.30;99.90
25839;DHT22;13669;50.186;27.062;2022-08-21T03:25:05;19.30;99.90
25839;DHT22;13669;50.186;27.062;2022-08-21T03:27:37;19.30;99.90
25839;DHT22;13669;50.186;27.062;2022-08-21T03:30:08;19.30;99.90
25839;DHT22;13669;50.186;27.062;2022-08-21T03:32:36;19.20;99.90
25839;DHT22;13669;50.186;27.062;2022-08-21T03:35:05;19.20;99.90
25839;DHT22;13669;50.186;27.062;2022-08-21T03:37:32;19.20;99.90
25839;DHT22;13669;50.186;27.062;2022-08-21T03:40:00;19.10;99.90
25839;DHT22;13669;50.186;27.062;2022-08-21T03:42:27;19.10;99.90
25839;DHT22;13669;50.186;27.062;2022-08-21T03:44:55;19.10;99.90
25839;DHT22;13669;50.186;27.062;2022-08-21T03:47:22;19.20;99.90
25839;DHT22;13669;50.186;27.062;2022-08-21T03:49:50;19.20;99.90
25839;DHT22;13669;50.186;27.062;2022-08-21T03:52:18;19.20;99.90
25839;DHT22;13669;50.186;27.062;2022-08-21T03:54:46;19.20;99.90
25839;DHT22;13669;50.186;27.062;2022-08-21T03:57:14;19.30;99.90
25839;DHT22;13669;50.186;27.062;2022-08-21T03:59:41;19.30;99.90
25839;DHT22;13669;50.186;27.062;2022-08-21T04:02:10;19.30;99.90
25839;DHT22;13669;50.186;27.062;2022-08-21T04:04:40;19.30;99.90
25839;DHT22;13669;50.186;27.062;2022-08-21T04:07:07;19.40;99.90
25839;DHT22;13669;50.186;27.062;2022-08-21T04:09:35;19.40;99.90
25839;DHT22;13669;50.186;27.062;2022-08-21T04:12:03;19.50;99.90
25839;DHT22;13669;50.186;27.062;2022-08-21T04:14:30;19.50;99.90
25839;DHT22;13669;50.186;27.062;2022-08-21T04:16:58;19.50;97.50
25839;DHT22;13669;50.186;27.062;2022-08-21T04:19:25;19.50;99.70
25839;DHT22;13669;50.186;27.062;2022-08-21T04:21:53;19.50;99.50
25839;DHT22;13669;50.186;27.062;2022-08-21T04:24:21;19.50;99.90
25839;DHT22;13669;50.186;27.062;2022-08-21T04:26:48;19.50;99.90
25839;DHT22;13669;50.186;27.062;2022-08-21T04:29:16;19.50;99.90
25839;DHT22;13669;50.186;27.062;2022-08-21T04:31:43;19.50;99.90
25839;DHT22;13669;50.186;27.062;2022-08-21T04:34:11;19.60;99.90
25839;DHT22;13669;50.186;27.062;2022-08-21T04:36:38;19.60;97.80
25839;DHT22;13669;50.186;27.062;2022-08-21T04:39:06;19.70;99.90
25839;DHT22;13669;50.186;27.062;2022-08-21T04:41:36;19.70;96.90
25839;DHT22;13669;50.186;27.062;2022-08-21T04:44:04;19.80;93.20
25839;DHT22;13669;50.186;27.062;2022-08-21T04:46:31;19.80;91.40
25839;DHT22;13669;50.186;27.062;2022-08-21T04:48:59;19.90;91.60
25839;DHT22;13669;50.186;27.062;2022-08-21T04:51:33;19.90;87.70
25839;DHT22;13669;50.186;27.062;2022-08-21T04:54:13;20.00;83.70
25839;DHT22;13669;50.186;27.062;2022-08-21T04:56:47;20.00;77.80
25839;DHT22;13669;50.186;27.062;2022-08-21T04:59:20;20.10;73.40
25839;DHT22;13669;50.186;27.062;2022-08-21T05:01:49;20.10;65.90
25839;DHT22;13669;50.186;27.062;2022-08-21T05:04:21;20.20;50.10
25839;DHT22;13669;50.186;27.062;2022-08-21T05:06:51;20.30;48.80
25839;DHT22;13669;50.186;27.062;2022-08-21T05:09:21;20.30;42.60
25839;DHT22;13669;50.186;27.062;2022-08-21T05:11:51;20.50;25.50
25839;DHT22;13669;50.186;27.062;2022-08-21T05:14:19;20.60;6.80
25839;DHT22;13669;50.186;27.062;2022-08-21T05:16:47;20.70;1.00
25839;DHT22;13669;50.186;27.062;2022-08-21T05:19:15;20.60;1.00
25839;DHT22;13669;50.186;27.062;2022-08-21T05:21:44;20.70;1.00
25839;DHT22;13669;50.186;27.062;2022-08-21T05:24:12;20.80;1.00
25839;DHT22;13669;50.186;27.062;2022-08-21T05:26:39;20.80;1.00
25839;DHT22;13669;50.186;27.062;2022-08-21T05:29:13;20.90;1.00
25839;DHT22;13669;50.186;27.062;2022-08-21T05:31:43;21.00;1.00
25839;DHT22;13669;50.186;27.062;2022-08-21T05:34:11;21.00;1.00
25839;DHT22;13669;50.186;27.062;2022-08-21T05:36:42;21.00;1.00
25839;DHT22;13669;50.186;27.062;2022-08-21T05:39:10;21.10;1.00
25839;DHT22;13669;50.186;27.062;2022-08-21T05:41:37;21.20;1.00
25839;DHT22;13669;50.186;27.062;2022-08-21T05:44:05;21.10;1.00
25839;DHT22;13669;50.186;27.062;2022-08-21T05:46:37;21.20;1.00
25839;DHT22;13669;50.186;27.062;2022-08-21T05:49:05;21.30;1.00
25839;DHT22;13669;50.186;27.062;2022-08-21T05:51:33;21.50;1.00
25839;DHT22;13669;50.186;27.062;2022-08-21T05:54:00;21.60;1.00
25839;DHT22;13669;50.186;27.062;2022-08-21T05:56:27;21.70;1.00
25839;DHT22;13669;50.186;27.062;2022-08-21T05:58:55;21.80;1.00
25839;DHT22;13669;50.186;27.062;2022-08-21T06:01:23;22.00;99.90
25839;DHT22;13669;50.186;27.062;2022-08-21T06:03:51;22.00;99.90
25839;DHT22;13669;50.186;27.062;2022-08-21T06:06:22;22.10;99.90
25839;DHT22;13669;50.186;27.062;2022-08-21T06:08:50;22.10;99.90
25839;DHT22;13669;50.186;27.062;2022-08-21T06:11:17;22.20;99.90
25839;DHT22;13669;50.186;27.062;2022-08-21T06:13:46;22.40;99.90
25839;DHT22;13669;50.186;27.062;2022-08-21T06:16:16;22.40;99.90
25839;DHT22;13669;50.186;27.062;2022-08-21T06:18:45;22.60;99.90
25839;DHT22;13669;50.186;27.062;2022-08-21T06:21:12;22.60;1.00
25839;DHT22;13669;50.186;27.062;2022-08-21T06:23:41;22.70;1.00
25839;DHT22;13669;50.186;27.062;2022-08-21T06:26:10;22.90;1.00
25839;DHT22;13669;50.186;27.062;2022-08-21T06:28:39;23.00;99.90
25839;DHT22;13669;50.186;27.062;2022-08-21T06:31:16;23.10;41.00
25839;DHT22;13669;50.186;27.062;2022-08-21T06:33:44;23.20;99.90
25839;DHT22;13669;50.186;27.062;2022-08-21T06:36:12;23.00;99.90
25839;DHT22;13669;50.186;27.062;2022-08-21T06:38:39;23.00;99.90
25839;DHT22;13669;50.186;27.062;2022-08-21T06:41:16;23.10;99.90
25839;DHT22;13669;50.186;27.062;2022-08-21T06:43:50;23.20;99.90
25839;DHT22;13669;50.186;27.062;2022-08-21T06:46:17;23.40;99.90
25839;DHT22;13669;50.186;27.062;2022-08-21T06:48:45;23.60;1.00
25839;DHT22;13669;50.186;27.062;2022-08-21T06:51:12;23.70;99.90
25839;DHT22;13669;50.186;27.062;2022-08-21T06:53:40;23.80;99.90
25839;DHT22;13669;50.186;27.062;2022-08-21T06:56:07;23.90;99.90
25839;DHT22;13669;50.186;27.062;2022-08-21T06:58:35;23.90;99.90
25839;DHT22;13669;50.186;27.062;2022-08-21T07:01:03;24.10;1.00
25839;DHT22;13669;50.186;27.062;2022-08-21T07:03:37;24.10;1.00
25839;DHT22;13669;50.186;27.062;2022-08-21T07:06:07;24.10;99.90
25839;DHT22;13669;50.186;27.062;2022-08-21T07:08:36;24.10;68.10
25839;DHT22;13669;50.186;27.062;2022-08-21T07:11:09;24.10;15.90
25839;DHT22;13669;50.186;27.062;2022-08-21T07:13:38;24.10;99.90
25839;DHT22;13669;50.186;27.062;2022-08-21T07:16:06;24.20;29.70
25839;DHT22;13669;50.186;27.062;2022-08-21T07:18:35;24.30;1.00
25839;DHT22;13669;50.186;27.062;2022-08-21T07:21:05;24.30;1.00
25839;DHT22;13669;50.186;27.062;2022-08-21T07:23:38;24.40;99.90
25839;DHT22;13669;50.186;27.062;2022-08-21T07:26:08;24.60;1.00
25839;DHT22;13669;50.186;27.062;2022-08-21T07:28:36;24.50;99.90
25839;DHT22;13669;50.186;27.062;2022-08-21T07:31:04;24.60;99.90
25839;DHT22;13669;50.186;27.062;2022-08-21T07:33:33;24.60;99.90
25839;DHT22;13669;50.186;27.062;2022-08-21T07:36:02;24.70;99.90
25839;DHT22;13669;50.186;27.062;2022-08-21T07:38:30;24.80;99.90
25839;DHT22;13669;50.186;27.062;2022-08-21T07:41:00;24.80;99.90
25839;DHT22;13669;50.186;27.062;2022-08-21T07:43:29;24.90;99.90
25839;DHT22;13669;50.186;27.062;2022-08-21T07:45:56;25.00;99.90
25839;DHT22;13669;50.186;27.062;2022-08-21T07:48:24;24.80;99.90
25839;DHT22;13669;50.186;27.062;2022-08-21T07:50:52;25.00;99.90
25839;DHT22;13669;50.186;27.062;2022-08-21T07:53:19;25.00;99.90
25839;DHT22;13669;50.186;27.062;2022-08-21T07:55:47;24.90;99.90
25839;DHT22;13669;50.186;27.062;2022-08-21T07:58:14;24.90;99.90
25839;DHT22;13669;50.186;27.062;2022-08-21T08:00:42;25.00;99.90
25839;DHT22;13669;50.186;27.062;2022-08-21T08:03:09;25.10;99.90
25839;DHT22;13669;50.186;27.062;2022-08-21T08:05:37;25.30;71.80
25839;DHT22;13669;50.186;27.062;2022-08-21T08:08:06;25.50;1.00
25839;DHT22;13669;50.186;27.062;2022-08-21T08:10:34;25.50;1.00
25839;DHT22;13669;50.186;27.062;2022-08-21T08:13:02;25.50;1.00
25839;DHT22;13669;50.186;27.062;2022-08-21T08:15:30;25.70;1.00
25839;DHT22;13669;50.186;27.062;2022-08-21T08:18:03;25.70;99.90
25839;DHT22;13669;50.186;27.062;2022-08-21T08:20:31;25.50;99.90
25839;DHT22;13669;50.186;27.062;2022-08-21T08:22:59;25.40;99.90
25839;DHT22;13669;50.186;27.062;2022-08-21T08:25:27;25.30;99.90
25839;DHT22;13669;50.186;27.062;2022-08-21T08:28:04;25.20;99.90
25839;DHT22;13669;50.186;27.062;2022-08-21T08:30:45;25.10;1.00
25839;DHT22;13669;50.186;27.062;2022-08-21T08:33:14;25.10;1.00
25839;DHT22;13669;50.186;27.062;2022-08-21T08:35:45;25.10;1.00
25839;DHT22;13669;50.186;27.062;2022-08-21T08:38:15;25.20;1.00
25839;DHT22;13669;50.186;27.062;2022-08-21T08:41:11;25.10;1.00
25839;DHT22;13669;50.186;27.062;2022-08-21T08:43:44;25.10;1.00
25839;DHT22;13669;50.186;27.062;2022-08-21T08:46:18;25.20;1.00
25839;DHT22;13669;50.186;27.062;2022-08-21T08:48:58;25.40;1.00
25839;DHT22;13669;50.186;27.062;2022-08-21T08:51:46;25.60;1.00
25839;DHT22;13669;50.186;27.062;2022-08-21T08:54:24;25.70;1.00
25839;DHT22;13669;50.186;27.062;2022-08-21T08:56:53;25.90;1.00
25839;DHT22;13669;50.186;27.062;2022-08-21T08:59:26;26.10;99.90
25839;DHT22;13669;50.186;27.062;2022-08-21T09:01:56;26.10;99.90
25839;DHT22;13669;50.186;27.062;2022-08-21T09:04:26;26.10;99.90
25839;DHT22;13669;50.186;27.062;2022-08-21T09:13:21;26.20;99.90
25839;DHT22;13669;50.186;27.062;2022-08-21T09:21:37;26.40;99.90
25839;DHT22;13669;50.186;27.062;2022-08-21T09:26:52;26.20;99.90
25839;DHT22;13669;50.186;27.062;2022-08-21T09:29:23;26.10;99.90
25839;DHT22;13669;50.186;27.062;2022-08-21T09:31:52;26.10;99.90
25839;DHT22;13669;50.186;27.062;2022-08-21T09:34:29;26.10;99.90
25839;DHT22;13669;50.186;27.062;2022-08-21T09:36:57;26.20;99.90
25839;DHT22;13669;50.186;27.062;2022-08-21T09:39:31;26.20;99.90
25839;DHT22;13669;50.186;27.062;2022-08-21T09:42:09;26.30;99.90
25839;DHT22;13669;50.186;27.062;2022-08-21T09:44:39;26.20;99.90
25839;DHT22;13669;50.186;27.062;2022-08-21T09:47:11;26.20;99.90
25839;DHT22;13669;50.186;27.062;2022-08-21T09:49:43;26.20;99.90
25839;DHT22;13669;50.186;27.062;2022-08-21T09:52:22;26.30;99.90
25839;DHT22;13669;50.186;27.062;2022-08-21T09:54:52;26.40;99.90
25839;DHT22;13669;50.186;27.062;2022-08-21T09:57:30;26.30;99.90
25839;DHT22;13669;50.186;27.062;2022-08-21T10:02:46;26.70;99.90
25839;DHT22;13669;50.186;27.062;2022-08-21T10:05:21;26.70;94.50
25839;DHT22;13669;50.186;27.062;2022-08-21T10:07:50;26.60;82.80
25839;DHT22;13669;50.186;27.062;2022-08-21T10:10:24;26.80;1.00
25839;DHT22;13669;50.186;27.062;2022-08-21T10:30:05;26.80;1.00
25839;DHT22;13669;50.186;27.062;2022-08-21T10:32:46;26.60;1.00
25839;DHT22;13669;50.186;27.062;2022-08-21T10:35:39;26.40;1.00
25839;DHT22;13669;50.186;27.062;2022-08-21T10:41:30;27.00;1.00
25839;DHT22;13669;50.186;27.062;2022-08-21T10:46:58;27.40;1.00
25839;DHT22;13669;50.186;27.062;2022-08-21T10:50:07;27.50;99.90
25839;DHT22;13669;50.186;27.062;2022-08-21T11:00:51;28.50;99.90
25839;DHT22;13669;50.186;27.062;2022-08-21T11:03:39;28.70;24.90
25839;DHT22;13669;50.186;27.062;2022-08-21T11:06:26;29.00;1.00
25839;DHT22;13669;50.186;27.062;2022-08-21T11:08:57;29.60;1.00
25839;DHT22;13669;50.186;27.062;2022-08-21T11:11:38;29.50;1.00
25839;DHT22;13669;50.186;27.062;2022-08-21T11:14:31;28.80;1.00
25839;DHT22;13669;50.186;27.062;2022-08-21T11:17:07;28.10;1.00
25839;DHT22;13669;50.186;27.062;2022-08-21T11:19:47;27.80;1.00
25839;DHT22;13669;50.186;27.062;2022-08-21T11:22:33;27.70;1.00
25839;DHT22;13669;50.186;27.062;2022-08-21T11:25:14;27.90;1.00
25839;DHT22;13669;50.186;27.062;2022-08-21T11:27:51;28.00;1.00
25839;DHT22;13669;50.186;27.062;2022-08-21T11:30:21;28.10;1.00
25839;DHT22;13669;50.186;27.062;2022-08-21T11:35:36;29.90;1.00
25839;DHT22;13669;50.186;27.062;2022-08-21T11:38:26;30.80;1.00
25839;DHT22;13669;50.186;27.062;2022-08-21T11:43:45;30.30;1.00
25839;DHT22;13669;50.186;27.062;2022-08-21T11:46:48;29.60;1.00
25839;DHT22;13669;50.186;27.062;2022-08-21T11:55:14;28.60;1.00
25839;DHT22;13669;50.186;27.062;2022-08-21T12:00:35;28.60;1.00
25839;DHT22;13669;50.186;27.062;2022-08-21T12:03:33;28.50;1.00
25839;DHT22;13669;50.186;27.062;2022-08-21T12:06:13;29.40;1.00
25839;DHT22;13669;50.186;27.062;2022-08-21T12:08:59;31.50;1.00
25839;DHT22;13669;50.186;27.062;2022-08-21T12:11:28;34.20;99.90
25839;DHT22;13669;50.186;27.062;2022-08-21T12:16:36;35.10;99.90
25839;DHT22;13669;50.186;27.062;2022-08-21T12:19:29;34.60;99.90
25839;DHT22;13669;50.186;27.062;2022-08-21T12:26:57;32.70;99.90
25839;DHT22;13669;50.186;27.062;2022-08-21T12:29:32;34.10;99.90
25839;DHT22;13669;50.186;27.062;2022-08-21T12:32:20;34.90;99.90
25839;DHT22;13669;50.186;27.062;2022-08-21T12:38:15;37.00;99.90
25839;DHT22;13669;50.186;27.062;2022-08-21T12:41:01;36.90;99.90
25839;DHT22;13669;50.186;27.062;2022-08-21T12:43:34;35.30;99.90
25839;DHT22;13669;50.186;27.062;2022-08-21T12:46:03;33.80;99.90
25839;DHT22;13669;50.186;27.062;2022-08-21T12:48:57;31.50;99.90
25839;DHT22;13669;50.186;27.062;2022-08-21T12:51:30;30.00;99.90
25839;DHT22;13669;50.186;27.062;2022-08-21T12:54:00;29.00;99.90
25839;DHT22;13669;50.186;27.062;2022-08-21T12:56:32;28.90;99.90
25839;DHT22;13669;50.186;27.062;2022-08-21T12:59:10;28.70;99.90
25839;DHT22;13669;50.186;27.062;2022-08-21T13:01:45;30.40;99.90
25839;DHT22;13669;50.186;27.062;2022-08-21T13:04:27;32.90;99.90
25839;DHT22;13669;50.186;27.062;2022-08-21T13:06:59;34.40;99.90
25839;DHT22;13669;50.186;27.062;2022-08-21T13:09:29;34.90;99.90
25839;DHT22;13669;50.186;27.062;2022-08-21T13:11:58;34.40;99.90
25839;DHT22;13669;50.186;27.062;2022-08-21T13:14:41;34.10;99.90
25839;DHT22;13669;50.186;27.062;2022-08-21T13:17:16;34.60;99.90
25839;DHT22;13669;50.186;27.062;2022-08-21T13:20:07;35.60;99.90
25839;DHT22;13669;50.186;27.062;2022-08-21T13:22:43;36.50;99.90
25839;DHT22;13669;50.186;27.062;2022-08-21T13:25:13;36.80;99.90
25839;DHT22;13669;50.186;27.062;2022-08-21T13:27:41;37.20;99.90
25839;DHT22;13669;50.186;27.062;2022-08-21T13:30:18;37.60;99.90
25839;DHT22;13669;50.186;27.062;2022-08-21T13:32:54;36.10;99.90
25839;DHT22;13669;50.186;27.062;2022-08-21T13:35:29;35.80;99.90
25839;DHT22;13669;50.186;27.062;2022-08-21T13:37:58;35.20;99.90
25839;DHT22;13669;50.186;27.062;2022-08-21T13:40:38;35.20;99.90
25839;DHT22;13669;50.186;27.062;2022-08-21T13:43:14;34.60;99.90
25839;DHT22;13669;50.186;27.062;2022-08-21T13:45:50;33.20;99.90
25839;DHT22;13669;50.186;27.062;2022-08-21T13:48:19;31.90;99.90
25839;DHT22;13669;50.186;27.062;2022-08-21T13:50:48;30.50;99.90
25839;DHT22;13669;50.186;27.062;2022-08-21T13:53:44;29.90;99.90
25839;DHT22;13669;50.186;27.062;2022-08-21T13:56:30;30.40;99.90
25839;DHT22;13669;50.186;27.062;2022-08-21T13:59:00;32.20;99.90
25839;DHT22;13669;50.186;27.062;2022-08-21T14:01:31;34.00;99.90
25839;DHT22;13669;50.186;27.062;2022-08-21T14:04:04;35.20;99.90
25839;DHT22;13669;50.186;27.062;2022-08-21T14:06:35;36.30;99.90
25839;DHT22;13669;50.186;27.062;2022-08-21T14:09:11;35.70;99.90
25839;DHT22;13669;50.186;27.062;2022-08-21T14:11:39;34.30;99.90
25839;DHT22;13669;50.186;27.062;2022-08-21T14:14:23;33.00;99.90
25839;DHT22;13669;50.186;27.062;2022-08-21T14:16:58;32.90;99.90
25839;DHT22;13669;50.186;27.062;2022-08-21T14:19:35;33.80;99.90
25839;DHT22;13669;50.186;27.062;2022-08-21T14:25:00;34.30;99.90
25839;DHT22;13669;50.186;27.062;2022-08-21T14:27:30;34.30;99.90
25839;DHT22;13669;50.186;27.062;2022-08-21T14:30:09;35.00;99.90
25839;DHT22;13669;50.186;27.062;2022-08-21T14:32:40;35.10;99.90
25839;DHT22;13669;50.186;27.062;2022-08-21T14:35:12;34.90;99.90
25839;DHT22;13669;50.186;27.062;2022-08-21T14:37:44;35.30;99.90
25839;DHT22;13669;50.186;27.062;2022-08-21T14:40:16;35.00;99.90
25839;DHT22;13669;50.186;27.062;2022-08-21T14:42:45;34.90;99.90
25839;DHT22;13669;50.186;27.062;2022-08-21T14:45:16;34.70;99.90
25839;DHT22;13669;50.186;27.062;2022-08-21T14:47:50;34.80;99.90
25839;DHT22;13669;50.186;27.062;2022-08-21T14:50:18;35.00;99.90
25839;DHT22;13669;50.186;27.062;2022-08-21T14:52:46;35.20;99.90
25839;DHT22;13669;50.186;27.062;2022-08-21T14:55:17;35.50;99.90
25839;DHT22;13669;50.186;27.062;2022-08-21T14:57:47;35.50;99.90
25839;DHT22;13669;50.186;27.062;2022-08-21T15:00:17;35.50;99.90
25839;DHT22;13669;50.186;27.062;2022-08-21T15:02:49;35.20;99.90
25839;DHT22;13669;50.186;27.062;2022-08-21T15:05:17;35.10;99.90
25839;DHT22;13669;50.186;27.062;2022-08-21T15:07:59;35.00;99.90
25839;DHT22;13669;50.186;27.062;2022-08-21T15:10:29;34.60;99.90
25839;DHT22;13669;50.186;27.062;2022-08-21T15:12:57;34.30;99.90
25839;DHT22;13669;50.186;27.062;2022-08-21T15:15:25;34.10;99.90
25839;DHT22;13669;50.186;27.062;2022-08-21T15:17:53;34.10;99.90
25839;DHT22;13669;50.186;27.062;2022-08-21T15:20:36;34.20;99.90
25839;DHT22;13669;50.186;27.062;2022-08-21T15:23:08;34.20;99.90
25839;DHT22;13669;50.186;27.062;2022-08-21T15:25:43;34.30;99.90
25839;DHT22;13669;50.186;27.062;2022-08-21T15:28:12;34.20;99.90
25839;DHT22;13669;50.186;27.062;2022-08-21T15:30:41;34.00;99.90
25839;DHT22;13669;50.186;27.062;2022-08-21T15:33:09;33.80;99.90
25839;DHT22;13669;50.186;27.062;2022-08-21T15:35:37;33.80;99.90
25839;DHT22;13669;50.186;27.062;2022-08-21T15:38:07;33.20;99.90
25839;DHT22;13669;50.186;27.062;2022-08-21T15:40:38;32.60;99.90
25839;DHT22;13669;50.186;27.062;2022-08-21T15:43:29;32.30;99.90
25839;DHT22;13669;50.186;27.062;2022-08-21T15:46:00;32.30;99.90
25839;DHT22;13669;50.186;27.062;2022-08-21T15:48:28;32.30;99.90
25839;DHT22;13669;50.186;27.062;2022-08-21T15:50:56;32.30;99.90
25839;DHT22;13669;50.186;27.062;2022-08-21T15:53:23;32.30;99.90
25839;DHT22;13669;50.186;27.062;2022-08-21T15:55:51;32.30;99.90
25839;DHT22;13669;50.186;27.062;2022-08-21T15:58:18;32.10;99.90
25839;DHT22;13669;50.186;27.062;2022-08-21T16:00:47;32.00;99.90
25839;DHT22;13669;50.186;27.062;2022-08-21T16:03:17;32.20;99.90
25839;DHT22;13669;50.186;27.062;2022-08-21T16:05:48;32.10;99.90
25839;DHT22;13669;50.186;27.062;2022-08-21T16:08:20;31.90;99.90
25839;DHT22;13669;50.186;27.062;2022-08-21T16:10:48;31.60;99.90
25839;DHT22;13669;50.186;27.062;2022-08-21T16:13:27;31.50;99.90
25839;DHT22;13669;50.186;27.062;2022-08-21T16:15:56;31.20;99.90
25839;DHT22;13669;50.186;27.062;2022-08-21T16:18:26;31.00;99.90
25839;DHT22;13669;50.186;27.062;2022-08-21T16:20:53;30.60;99.90
25839;DHT22;13669;50.186;27.062;2022-08-21T16:23:21;30.30;99.90
25839;DHT22;13669;50.186;27.062;2022-08-21T16:25:49;30.10;99.90
25839;DHT22;13669;50.186;27.062;2022-08-21T16:28:19;29.80;99.90
25839;DHT22;13669;50.186;27.062;2022-08-21T16:30:49;29.70;99.90
25839;DHT22;13669;50.186;27.062;2022-08-21T16:33:30;29.50;99.90
25839;DHT22;13669;50.186;27.062;2022-08-21T16:36:02;29.30;99.90
25839;DHT22;13669;50.186;27.062;2022-08-21T16:38:30;28.90;99.90
25839;DHT22;13669;50.186;27.062;2022-08-21T16:41:04;28.70;99.90
25839;DHT22;13669;50.186;27.062;2022-08-21T16:43:34;28.50;99.90
25839;DHT22;13669;50.186;27.062;2022-08-21T16:46:02;28.30;99.90
25839;DHT22;13669;50.186;27.062;2022-08-21T16:48:29;28.00;99.90
25839;DHT22;13669;50.186;27.062;2022-08-21T16:50:57;27.90;1.00
25839;DHT22;13669;50.186;27.062;2022-08-21T16:53:25;27.60;1.00
25839;DHT22;13669;50.186;27.062;2022-08-21T16:55:53;27.40;1.00
25839;DHT22;13669;50.186;27.062;2022-08-21T16:58:30;27.20;1.00
25839;DHT22;13669;50.186;27.062;2022-08-21T17:00:59;26.90;1.00
25839;DHT22;13669;50.186;27.062;2022-08-21T17:03:37;26.60;46.40